Terminal Aerodrome Forecast
Issued by NWS

Home | Current Version | Previous Version | Text Only | Print | Product List | Glossary On
Versions: 1 2 3 4 5 6 7 8 9 10 11 12 13 14 15
000
FTUS43 KPAH 141400 AAA
TAFCGI
TAF AMD
KCGI 141424Z 1414/1512 33010KT 3SM -RA BR BKN009
     FM141530 33010G20KT 5SM -RA BR SCT009 OVC015
     FM142000 34015G25KT 4SM -RA BR OVC015
     FM150400 33013G20KT P6SM BKN020
     FM150800 32010KT P6SM SKC=

USA.gov is the U.S. government's official web portal to all federal, state and local government web resources and services.